createdAt,value
2023-02-23T00:03:57.186Z,99978.72
2023-02-23T00:08:53.876Z,99976.53
2023-02-23T00:13:51.014Z,99978.03
2023-02-23T00:18:54.042Z,99972.75
2023-02-23T00:24:11.883Z,99984.41
2023-02-23T00:29:13.092Z,99974.03
2023-02-23T00:34:10.894Z,99966.59
2023-02-23T00:39:25.889Z,99964.50
2023-02-23T00:44:23.985Z,99974.44
2023-02-23T00:49:22.191Z,99973.75
2023-02-23T00:54:20.075Z,99977.59
2023-02-23T00:59:17.367Z,99969.09
2023-02-23T01:04:14.019Z,99977.44
2023-02-23T01:09:14.171Z,99971.81
2023-02-23T01:14:10.935Z,99974.34
2023-02-23T01:19:08.113Z,99970.31
2023-02-23T01:24:05.472Z,99974.00
2023-02-23T01:29:08.615Z,99970.41
2023-02-23T01:34:06.231Z,99971.97
2023-02-23T01:39:06.312Z,99974.06
2023-02-23T01:44:08.693Z,99973.97
2023-02-23T01:49:08.248Z,99972.72
2023-02-23T01:54:09.779Z,99975.78
2023-02-23T01:59:08.163Z,99984.09
2023-02-23T02:04:05.811Z,99981.03
2023-02-23T02:09:08.110Z,99980.06
2023-02-23T02:14:33.861Z,99971.88
2023-02-23T02:19:37.098Z,99966.59
2023-02-23T02:25:12.605Z,99969.75
2023-02-23T02:30:18.007Z,99972.66
2023-02-23T02:35:48.589Z,99957.84
2023-02-23T02:41:13.973Z,99966.41
2023-02-23T02:46:23.087Z,99960.16
2023-02-23T02:51:23.158Z,99961.09
2023-02-23T02:56:23.687Z,99956.75
2023-02-23T03:01:39.061Z,99958.13
2023-02-23T03:07:02.653Z,99952.72
2023-02-23T03:12:40.298Z,99953.66
2023-02-23T03:18:05.412Z,99953.19
2023-02-23T03:23:33.242Z,99954.78
2023-02-23T03:29:15.848Z,99955.16
2023-02-23T03:34:47.433Z,99956.13
2023-02-23T03:40:25.874Z,99949.75
2023-02-23T03:45:44.804Z,99955.91
2023-02-23T03:51:07.796Z,99960.03
2023-02-23T03:56:24.910Z,99957.47
2023-02-23T04:01:40.742Z,99959.28
2023-02-23T04:07:00.324Z,99957.22
2023-02-23T04:12:24.530Z,99951.78
2023-02-23T04:17:24.688Z,99967.69
2023-02-23T04:22:22.012Z,99963.44
2023-02-23T04:27:18.687Z,99966.69
2023-02-23T04:32:18.217Z,99975.81
2023-02-23T04:37:15.971Z,99974.00
2023-02-23T04:42:12.340Z,99966.94
2023-02-23T04:47:08.947Z,99973.09
2023-02-23T04:52:05.641Z,99962.84
2023-02-23T04:57:02.052Z,99954.47
2023-02-23T05:01:58.634Z,99963.41
2023-02-23T05:06:55.001Z,99952.88
2023-02-23T05:11:51.384Z,99964.56
2023-02-23T05:16:48.097Z,99966.34
2023-02-23T05:21:44.761Z,99968.34
2023-02-23T05:26:41.064Z,99986.66
2023-02-23T05:31:37.617Z,99975.19
2023-02-23T05:36:34.011Z,99976.91
2023-02-23T05:41:30.337Z,99976.75
2023-02-23T05:46:27.426Z,99987.78
2023-02-23T05:51:24.007Z,99978.41
2023-02-23T05:56:21.279Z,99979.66
2023-02-23T06:01:18.751Z,99980.84
2023-02-23T06:06:16.211Z,99989.47
2023-02-23T06:11:12.774Z,99989.06
2023-02-23T06:16:09.664Z,100001.38
2023-02-23T06:21:06.246Z,100009.22
2023-02-23T06:26:02.572Z,100007.59
2023-02-23T06:30:59.342Z,100011.09
2023-02-23T06:35:55.904Z,100012.81
2023-02-23T06:40:52.347Z,100022.44
2023-02-23T06:45:48.808Z,100030.72
2023-02-23T06:50:45.148Z,100037.16
2023-02-23T06:55:41.502Z,100050.97
2023-02-23T07:00:42.991Z,100054.22
2023-02-23T07:05:39.318Z,100053.44
2023-02-23T07:10:35.847Z,100063.19
2023-02-23T07:15:32.245Z,100066.38
2023-02-23T07:20:28.698Z,100069.44
2023-02-23T07:25:25.125Z,100075.72
2023-02-23T07:30:26.268Z,100077.34
2023-02-23T07:35:22.666Z,100082.38
2023-02-23T07:40:19.385Z,100082.75
2023-02-23T07:45:17.279Z,100075.22
2023-02-23T07:50:13.920Z,100078.81
2023-02-23T07:55:11.935Z,100082.44
2023-02-23T08:00:09.204Z,100091.13
2023-02-23T08:05:06.008Z,100095.44
2023-02-23T08:10:02.441Z,100091.47
2023-02-23T08:14:58.861Z,100091.78
2023-02-23T08:19:55.215Z,100088.91
2023-02-23T08:24:51.732Z,100104.09
2023-02-23T08:29:48.435Z,100099.69
2023-02-23T08:34:45.028Z,100108.75
2023-02-23T08:39:43.393Z,100110.88
2023-02-23T08:44:39.892Z,100115.94
2023-02-23T08:49:36.221Z,100133.31
2023-02-23T08:54:32.609Z,100147.50
2023-02-23T08:59:29.008Z,100148.50
2023-02-23T09:04:25.399Z,100150.63
2023-02-23T09:09:21.803Z,100162.38
2023-02-23T09:14:18.160Z,100171.50
2023-02-23T09:19:14.907Z,100180.19
2023-02-23T09:24:11.340Z,100187.28
2023-02-23T09:29:07.872Z,100198.75
2023-02-23T09:34:04.300Z,100206.88
2023-02-23T09:39:01.429Z,100204.34
2023-02-23T09:44:19.258Z,100218.22
2023-02-23T09:54:24.226Z,100231.34
2023-02-23T09:59:21.804Z,100241.31
2023-02-23T10:04:28.848Z,100239.28
2023-02-23T10:09:31.057Z,100251.81
2023-02-23T10:14:45.866Z,100251.69
2023-02-23T10:19:57.082Z,100260.09
2023-02-23T10:25:00.520Z,100260.50
2023-02-23T10:30:01.431Z,100265.56
2023-02-23T10:34:58.010Z,100264.94
2023-02-23T10:39:54.594Z,100268.53
2023-02-23T10:44:50.962Z,100275.31
2023-02-23T10:49:52.739Z,100267.28
2023-02-23T10:54:51.623Z,100259.63
2023-02-23T11:00:02.216Z,100257.44
2023-02-23T11:05:00.549Z,100260.41
2023-02-23T11:09:58.446Z,100256.22
2023-02-23T11:14:57.021Z,100250.44
2023-02-23T11:19:58.596Z,100249.03
2023-02-23T11:24:56.014Z,100248.41
2023-02-23T11:29:55.737Z,100244.81
2023-02-23T11:35:15.574Z,100247.59
2023-02-23T11:40:34.728Z,100242.38
2023-02-23T11:45:38.136Z,100244.81
2023-02-23T11:50:36.385Z,100236.78
2023-02-23T11:55:36.575Z,100232.53
2023-02-23T12:00:33.583Z,100225.97
2023-02-23T12:05:32.654Z,100227.03
2023-02-23T12:10:31.782Z,100232.50
2023-02-23T12:15:42.688Z,100232.75
2023-02-23T12:20:43.396Z,100223.41
2023-02-23T12:25:48.200Z,100228.50
2023-02-23T12:31:00.463Z,100218.88
2023-02-23T12:36:02.921Z,100216.00
2023-02-23T12:41:13.878Z,100216.44
2023-02-23T12:46:20.707Z,100219.09
2023-02-23T12:51:43.257Z,100227.44
2023-02-23T12:57:13.085Z,100216.22
2023-02-23T13:02:09.402Z,100211.75
2023-02-23T13:07:22.728Z,100208.59
2023-02-23T13:12:40.372Z,100219.63
2023-02-23T13:17:39.665Z,100220.47
2023-02-23T13:22:57.587Z,100206.69
2023-02-23T13:28:00.069Z,100210.09
2023-02-23T13:32:56.949Z,100213.91
2023-02-23T13:38:23.161Z,100213.88
2023-02-23T13:43:34.510Z,100216.00
2023-02-23T13:48:55.587Z,100218.31
2023-02-23T13:54:01.688Z,100214.72
2023-02-23T13:59:03.749Z,100211.53
2023-02-23T14:04:02.990Z,100221.63
2023-02-23T14:09:08.176Z,100218.31
2023-02-23T14:14:05.020Z,100223.63
2023-02-23T14:19:06.353Z,100218.13
2023-02-23T14:24:19.315Z,100225.00
2023-02-23T14:29:15.723Z,100223.84
2023-02-23T14:34:13.536Z,100228.06
2023-02-23T14:39:18.096Z,100230.09
2023-02-23T14:44:36.380Z,100224.69
2023-02-23T14:49:38.855Z,100233.34
2023-02-23T14:54:40.296Z,100242.66
2023-02-23T14:59:39.461Z,100246.88
2023-02-23T15:04:38.602Z,100250.81
2023-02-23T15:09:42.606Z,100253.84
2023-02-23T15:14:40.836Z,100255.31
2023-02-23T15:19:39.209Z,100266.72
2023-02-23T15:24:44.608Z,100257.97
2023-02-23T15:29:41.193Z,100265.06
2023-02-23T15:34:37.591Z,100270.53
2023-02-23T15:39:40.003Z,100275.78
2023-02-23T15:44:44.092Z,100277.13
2023-02-23T15:49:42.110Z,100270.78
2023-02-23T15:55:01.517Z,100254.94
2023-02-23T16:00:00.539Z,100255.03
2023-02-23T16:05:14.615Z,100243.06
2023-02-23T16:10:28.917Z,100241.66
2023-02-23T16:15:33.057Z,100250.09
2023-02-23T16:20:34.729Z,100246.03
2023-02-23T16:25:33.115Z,100257.66
2023-02-23T16:30:32.551Z,100260.50
2023-02-23T16:35:40.057Z,100255.31
2023-02-23T16:40:36.519Z,100258.88
2023-02-23T16:45:33.034Z,100257.28
2023-02-23T16:50:30.173Z,100259.00
2023-02-23T16:55:28.507Z,100260.06
2023-02-23T17:00:29.348Z,100260.44
2023-02-23T17:05:27.875Z,100278.28
2023-02-23T17:10:35.131Z,100281.66
2023-02-23T17:15:37.279Z,100292.38
2023-02-23T17:20:33.809Z,100293.44
2023-02-23T17:25:30.314Z,100306.09
2023-02-23T17:30:28.332Z,100316.56
2023-02-23T17:35:25.716Z,100325.34
2023-02-23T17:40:31.142Z,100331.66
2023-02-23T17:45:28.985Z,100336.94
2023-02-23T17:50:27.020Z,100344.88
2023-02-23T17:55:24.383Z,100352.91
2023-02-23T18:00:21.073Z,100360.72
2023-02-23T18:05:17.533Z,100359.97
2023-02-23T18:10:14.563Z,100361.69
2023-02-23T18:15:10.984Z,100366.13
2023-02-23T18:20:07.926Z,100367.91
2023-02-23T18:25:04.659Z,100374.31
2023-02-23T18:30:00.961Z,100379.59
2023-02-23T18:34:57.594Z,100371.97
2023-02-23T18:39:55.510Z,100380.81
2023-02-23T18:44:51.885Z,100381.00
2023-02-23T18:49:48.313Z,100384.50
2023-02-23T18:54:45.507Z,100399.50
2023-02-23T18:59:41.928Z,100404.72
2023-02-23T19:04:39.196Z,100404.72
2023-02-23T19:09:39.579Z,100403.00
2023-02-23T19:14:48.904Z,100405.72
2023-02-23T19:19:45.855Z,100409.31
2023-02-23T19:24:42.178Z,100410.16
2023-02-23T19:29:38.616Z,100410.91
2023-02-23T19:34:35.618Z,100409.03
2023-02-23T19:39:33.183Z,100411.66
2023-02-23T19:44:29.824Z,100411.50
2023-02-23T19:49:26.501Z,100414.03
2023-02-23T19:54:25.934Z,100413.19
2023-02-23T19:59:22.473Z,100417.72
2023-02-23T20:04:18.767Z,100422.81
2023-02-23T20:09:15.371Z,100436.38
2023-02-23T20:14:12.427Z,100417.19
2023-02-23T20:19:08.948Z,100401.47
2023-02-23T20:24:05.578Z,100388.09
2023-02-23T20:29:03.894Z,100382.63
2023-02-23T20:34:03.496Z,100362.91
2023-02-23T20:39:00.022Z,100339.97
2023-02-23T20:43:56.549Z,100331.38
2023-02-23T20:48:52.924Z,100316.56
2023-02-23T20:53:49.266Z,100303.81
2023-02-23T20:58:46.166Z,100303.66
2023-02-23T21:03:42.689Z,100307.91
2023-02-23T21:08:42.255Z,100285.66
2023-02-23T21:13:39.249Z,100264.97
2023-02-23T21:18:35.591Z,100267.03
2023-02-23T21:23:33.005Z,100262.03
2023-02-23T21:28:29.306Z,100244.25
2023-02-23T21:33:25.671Z,100242.38
2023-02-23T21:38:23.625Z,100231.94
2023-02-23T21:43:20.125Z,100221.03
2023-02-23T21:48:16.700Z,100215.19
2023-02-23T21:53:13.314Z,100201.91
2023-02-23T21:58:09.816Z,100196.41
2023-02-23T22:03:06.317Z,100201.91
2023-02-23T22:08:02.680Z,100196.84
2023-02-23T22:13:00.022Z,100198.69
2023-02-23T22:17:56.415Z,100192.25
2023-02-23T22:22:52.722Z,100193.59
2023-02-23T22:27:49.031Z,100209.94
2023-02-23T22:32:45.657Z,100203.28
2023-02-23T22:37:42.524Z,100200.09
2023-02-23T22:42:38.934Z,100199.91
2023-02-23T22:47:35.805Z,100189.63
2023-02-23T22:52:34.594Z,100185.63
2023-02-23T22:57:30.858Z,100187.75
2023-02-23T23:02:32.136Z,100174.25
2023-02-23T23:07:30.900Z,100172.19
2023-02-23T23:12:29.984Z,100174.28
2023-02-23T23:17:26.386Z,100173.84
2023-02-23T23:22:24.968Z,100168.94
2023-02-23T23:27:21.501Z,100171.06
2023-02-23T23:32:19.665Z,100179.88
2023-02-23T23:37:18.445Z,100168.66
2023-02-23T23:42:14.754Z,100174.31
2023-02-23T23:47:11.263Z,100170.22
2023-02-23T23:52:08.266Z,100170.63
2023-02-23T23:57:05.932Z,100158.66
